Terminal Aerodrome Forecast
Issued by NWS

Current Version | Previous Version | Text Only | Print | Product List | Glossary Off
Versions: 1 2 3 4 5 6 7 8 9 10 11 12 13 14 15 16 17 18 19 20 21 22 23 24 25 26 27 28 29 30 31 32 33 34 35 36

000
FTUS41 KRNK 222320
TAFLWB
TAF
KLWB 222320Z 2300/2324 22003KT P6SM -SHRA OVC080
     FM230200 00000KT P6SM OVC040
     FM231300 28003KT P6SM BKN040
     FM231800 01005KT P6SM OVC040=

USA.gov is the U.S. government's official web portal to all federal, state and local government web resources and services.